sensor_id;sensor_type;location;lat;lon;timestamp;pressure;altitude;pressure_sealevel;temperature;humidity
57847;BME280;43675;50.030;21.952;2023-07-16T00:00:12;98657.48;;;18.77;71.77
57847;BME280;43675;50.030;21.952;2023-07-16T00:02:58;98658.61;;;18.76;71.72
57847;BME280;43675;50.030;21.952;2023-07-16T00:05:25;98657.80;;;18.76;71.84
57847;BME280;43675;50.030;21.952;2023-07-16T00:07:51;98658.02;;;18.74;71.85
57847;BME280;43675;50.030;21.952;2023-07-16T00:10:18;98656.69;;;18.72;71.82
57847;BME280;43675;50.030;21.952;2023-07-16T00:12:44;98661.48;;;18.71;71.92
57847;BME280;43675;50.030;21.952;2023-07-16T00:15:11;98659.35;;;18.68;71.99
57847;BME280;43675;50.030;21.952;2023-07-16T00:17:37;98657.94;;;18.67;72.02
57847;BME280;43675;50.030;21.952;2023-07-16T00:20:04;98653.80;;;18.66;72.09
57847;BME280;43675;50.030;21.952;2023-07-16T00:22:31;98653.75;;;18.65;72.13
57847;BME280;43675;50.030;21.952;2023-07-16T00:24:58;98647.93;;;18.66;72.10
57847;BME280;43675;50.030;21.952;2023-07-16T00:27:24;98642.59;;;18.65;72.18
57847;BME280;43675;50.030;21.952;2023-07-16T00:29:51;98638.86;;;18.66;72.21
57847;BME280;43675;50.030;21.952;2023-07-16T00:32:17;98635.36;;;18.66;72.26
57847;BME280;43675;50.030;21.952;2023-07-16T00:34:44;98635.91;;;18.66;72.24
57847;BME280;43675;50.030;21.952;2023-07-16T00:37:10;98634.71;;;18.65;72.24
57847;BME280;43675;50.030;21.952;2023-07-16T00:39:37;98631.17;;;18.65;72.25
57847;BME280;43675;50.030;21.952;2023-07-16T00:42:03;98632.20;;;18.65;72.21
57847;BME280;43675;50.030;21.952;2023-07-16T00:44:30;98633.68;;;18.65;72.20
57847;BME280;43675;50.030;21.952;2023-07-16T00:46:56;98631.02;;;18.65;72.19
57847;BME280;43675;50.030;21.952;2023-07-16T00:49:24;98630.46;;;18.64;72.21
57847;BME280;43675;50.030;21.952;2023-07-16T00:51:51;98634.70;;;18.63;72.21
57847;BME280;43675;50.030;21.952;2023-07-16T00:54:19;98633.29;;;18.62;72.19
57847;BME280;43675;50.030;21.952;2023-07-16T00:56:46;98634.54;;;18.61;72.30
57847;BME280;43675;50.030;21.952;2023-07-16T00:59:12;98635.45;;;18.61;72.22
57847;BME280;43675;50.030;21.952;2023-07-16T01:01:39;98631.28;;;18.61;72.21
57847;BME280;43675;50.030;21.952;2023-07-16T01:04:06;98631.44;;;18.61;72.12
57847;BME280;43675;50.030;21.952;2023-07-16T01:06:39;98635.69;;;18.62;72.13
57847;BME280;43675;50.030;21.952;2023-07-16T01:09:18;98635.25;;;18.64;72.06
57847;BME280;43675;50.030;21.952;2023-07-16T01:11:46;98636.40;;;18.67;71.95
57847;BME280;43675;50.030;21.952;2023-07-16T01:14:14;98633.05;;;18.72;71.83
57847;BME280;43675;50.030;21.952;2023-07-16T01:16:42;98628.87;;;18.76;71.63
57847;BME280;43675;50.030;21.952;2023-07-16T01:19:10;98628.49;;;18.80;71.54
57847;BME280;43675;50.030;21.952;2023-07-16T01:24:33;98623.02;;;18.87;71.31
57847;BME280;43675;50.030;21.952;2023-07-16T01:29:41;98622.23;;;18.99;70.79
57847;BME280;43675;50.030;21.952;2023-07-16T01:32:11;98621.51;;;19.02;70.65
57847;BME280;43675;50.030;21.952;2023-07-16T01:34:38;98611.14;;;19.04;70.62
57847;BME280;43675;50.030;21.952;2023-07-16T01:37:05;98613.52;;;19.07;70.47
57847;BME280;43675;50.030;21.952;2023-07-16T01:39:32;98615.17;;;19.11;70.32
57847;BME280;43675;50.030;21.952;2023-07-16T01:41:59;98614.30;;;19.12;70.17
57847;BME280;43675;50.030;21.952;2023-07-16T01:44:26;98614.84;;;19.13;70.12
57847;BME280;43675;50.030;21.952;2023-07-16T01:49:34;98608.63;;;19.15;69.94
57847;BME280;43675;50.030;21.952;2023-07-16T01:52:02;98603.69;;;19.16;69.80
57847;BME280;43675;50.030;21.952;2023-07-16T01:54:29;98602.71;;;19.17;69.79
57847;BME280;43675;50.030;21.952;2023-07-16T01:56:55;98605.05;;;19.18;69.70
57847;BME280;43675;50.030;21.952;2023-07-16T01:59:22;98608.64;;;19.18;69.55
57847;BME280;43675;50.030;21.952;2023-07-16T02:01:48;98606.25;;;19.18;69.44
57847;BME280;43675;50.030;21.952;2023-07-16T02:04:15;98607.67;;;19.18;69.46
57847;BME280;43675;50.030;21.952;2023-07-16T02:06:41;98606.52;;;19.16;69.40
57847;BME280;43675;50.030;21.952;2023-07-16T02:09:09;98609.02;;;19.13;69.58
57847;BME280;43675;50.030;21.952;2023-07-16T02:11:36;98606.67;;;19.11;69.44
57847;BME280;43675;50.030;21.952;2023-07-16T02:14:02;98607.27;;;19.09;69.52
57847;BME280;43675;50.030;21.952;2023-07-16T02:16:29;98603.73;;;19.05;69.55
57847;BME280;43675;50.030;21.952;2023-07-16T02:18:55;98602.20;;;19.02;69.58
57847;BME280;43675;50.030;21.952;2023-07-16T02:21:22;98598.95;;;18.97;69.63
57847;BME280;43675;50.030;21.952;2023-07-16T02:23:48;98606.92;;;18.93;69.73
57847;BME280;43675;50.030;21.952;2023-07-16T02:26:15;98608.84;;;18.89;69.81
57847;BME280;43675;50.030;21.952;2023-07-16T02:28:41;98603.62;;;18.86;69.89
57847;BME280;43675;50.030;21.952;2023-07-16T02:31:08;98603.06;;;18.83;69.96
57847;BME280;43675;50.030;21.952;2023-07-16T02:33:34;98601.09;;;18.79;70.13
57847;BME280;43675;50.030;21.952;2023-07-16T02:36:01;98597.28;;;18.76;70.10
57847;BME280;43675;50.030;21.952;2023-07-16T02:38:27;98600.16;;;18.74;70.29
57847;BME280;43675;50.030;21.952;2023-07-16T02:40:54;98600.52;;;18.72;70.36
57847;BME280;43675;50.030;21.952;2023-07-16T02:43:20;98599.56;;;18.70;70.29
57847;BME280;43675;50.030;21.952;2023-07-16T02:45:47;98603.46;;;18.69;70.33
57847;BME280;43675;50.030;21.952;2023-07-16T02:48:13;98603.14;;;18.68;70.44
57847;BME280;43675;50.030;21.952;2023-07-16T02:50:40;98596.23;;;18.66;70.50
57847;BME280;43675;50.030;21.952;2023-07-16T02:53:07;98598.06;;;18.63;70.57
57847;BME280;43675;50.030;21.952;2023-07-16T02:55:34;98595.23;;;18.61;70.65
57847;BME280;43675;50.030;21.952;2023-07-16T02:58:01;98594.52;;;18.59;70.69
57847;BME280;43675;50.030;21.952;2023-07-16T03:00:28;98594.36;;;18.57;70.80
57847;BME280;43675;50.030;21.952;2023-07-16T03:02:54;98591.44;;;18.53;70.93
57847;BME280;43675;50.030;21.952;2023-07-16T03:05:21;98590.55;;;18.50;70.95
57847;BME280;43675;50.030;21.952;2023-07-16T03:07:47;98588.54;;;18.47;71.11
57847;BME280;43675;50.030;21.952;2023-07-16T03:10:14;98589.78;;;18.46;71.17
57847;BME280;43675;50.030;21.952;2023-07-16T03:12:40;98590.32;;;18.43;71.33
57847;BME280;43675;50.030;21.952;2023-07-16T03:15:07;98590.21;;;18.44;71.53
57847;BME280;43675;50.030;21.952;2023-07-16T03:17:34;98592.51;;;18.47;71.56
57847;BME280;43675;50.030;21.952;2023-07-16T03:20:02;98590.18;;;18.50;71.64
57847;BME280;43675;50.030;21.952;2023-07-16T03:22:28;98590.65;;;18.54;71.74
57847;BME280;43675;50.030;21.952;2023-07-16T03:24:55;98590.78;;;18.62;71.61
57847;BME280;43675;50.030;21.952;2023-07-16T03:27:21;98592.54;;;18.69;71.54
57847;BME280;43675;50.030;21.952;2023-07-16T03:29:48;98593.52;;;18.77;71.35
57847;BME280;43675;50.030;21.952;2023-07-16T03:32:15;98595.61;;;18.85;71.24
57847;BME280;43675;50.030;21.952;2023-07-16T03:34:41;98596.22;;;18.95;71.04
57847;BME280;43675;50.030;21.952;2023-07-16T03:37:08;98596.12;;;19.02;70.76
57847;BME280;43675;50.030;21.952;2023-07-16T03:39:34;98597.21;;;19.10;70.70
57847;BME280;43675;50.030;21.952;2023-07-16T03:42:01;98597.70;;;19.18;70.42
57847;BME280;43675;50.030;21.952;2023-07-16T03:44:29;98594.05;;;19.27;70.52
57847;BME280;43675;50.030;21.952;2023-07-16T03:46:56;98593.73;;;19.33;70.21
57847;BME280;43675;50.030;21.952;2023-07-16T03:49:22;98592.80;;;19.42;70.13
57847;BME280;43675;50.030;21.952;2023-07-16T03:51:49;98589.98;;;19.50;70.00
57847;BME280;43675;50.030;21.952;2023-07-16T03:54:15;98592.38;;;19.58;69.81
57847;BME280;43675;50.030;21.952;2023-07-16T03:56:42;98593.61;;;19.67;69.53
57847;BME280;43675;50.030;21.952;2023-07-16T03:59:08;98596.32;;;19.77;69.46
57847;BME280;43675;50.030;21.952;2023-07-16T04:01:35;98597.88;;;19.86;69.23
57847;BME280;43675;50.030;21.952;2023-07-16T04:04:01;98602.87;;;19.95;69.06
57847;BME280;43675;50.030;21.952;2023-07-16T04:06:28;98608.52;;;20.04;68.83
57847;BME280;43675;50.030;21.952;2023-07-16T04:08:54;98612.40;;;20.13;68.79
57847;BME280;43675;50.030;21.952;2023-07-16T04:11:21;98612.42;;;20.22;68.42
57847;BME280;43675;50.030;21.952;2023-07-16T04:13:47;98616.45;;;20.31;68.27
57847;BME280;43675;50.030;21.952;2023-07-16T04:16:14;98616.09;;;20.40;68.39
57847;BME280;43675;50.030;21.952;2023-07-16T04:18:40;98614.84;;;20.48;68.08
57847;BME280;43675;50.030;21.952;2023-07-16T04:21:07;98616.34;;;20.57;67.95
57847;BME280;43675;50.030;21.952;2023-07-16T04:23:34;98616.94;;;20.65;67.64
57847;BME280;43675;50.030;21.952;2023-07-16T04:26:00;98618.74;;;20.74;67.44
57847;BME280;43675;50.030;21.952;2023-07-16T04:28:27;98617.38;;;20.84;67.33
57847;BME280;43675;50.030;21.952;2023-07-16T04:30:53;98619.61;;;20.92;67.07
57847;BME280;43675;50.030;21.952;2023-07-16T04:33:20;98622.67;;;21.01;67.03
57847;BME280;43675;50.030;21.952;2023-07-16T04:35:46;98624.67;;;21.11;66.67
57847;BME280;43675;50.030;21.952;2023-07-16T04:38:13;98624.90;;;21.21;66.52
57847;BME280;43675;50.030;21.952;2023-07-16T04:40:42;98620.89;;;21.32;66.18
57847;BME280;43675;50.030;21.952;2023-07-16T04:43:08;98624.40;;;21.42;66.09
57847;BME280;43675;50.030;21.952;2023-07-16T04:45:35;98623.83;;;21.53;65.80
57847;BME280;43675;50.030;21.952;2023-07-16T04:48:01;98623.46;;;21.63;65.70
57847;BME280;43675;50.030;21.952;2023-07-16T04:50:28;98625.43;;;21.74;65.59
57847;BME280;43675;50.030;21.952;2023-07-16T04:52:54;98626.74;;;21.85;65.27
57847;BME280;43675;50.030;21.952;2023-07-16T04:55:21;98627.32;;;21.95;64.99
57847;BME280;43675;50.030;21.952;2023-07-16T04:57:47;98626.94;;;22.05;64.57
57847;BME280;43675;50.030;21.952;2023-07-16T05:00:14;98626.13;;;22.14;64.35
57847;BME280;43675;50.030;21.952;2023-07-16T05:02:40;98628.31;;;22.24;64.18
57847;BME280;43675;50.030;21.952;2023-07-16T05:05:07;98629.30;;;22.33;64.24
57847;BME280;43675;50.030;21.952;2023-07-16T05:07:34;98625.99;;;22.44;64.04
57847;BME280;43675;50.030;21.952;2023-07-16T05:10:01;98626.63;;;22.67;63.65
57847;BME280;43675;50.030;21.952;2023-07-16T05:12:27;98619.73;;;22.91;63.37
57847;BME280;43675;50.030;21.952;2023-07-16T05:14:54;98623.52;;;23.13;62.84
57847;BME280;43675;50.030;21.952;2023-07-16T05:17:20;98620.05;;;23.26;62.64
57847;BME280;43675;50.030;21.952;2023-07-16T05:19:47;98619.48;;;23.26;62.25
57847;BME280;43675;50.030;21.952;2023-07-16T05:22:13;98617.85;;;23.29;61.97
57847;BME280;43675;50.030;21.952;2023-07-16T05:24:40;98623.67;;;23.35;61.79
57847;BME280;43675;50.030;21.952;2023-07-16T05:27:06;98617.72;;;23.41;61.36
57847;BME280;43675;50.030;21.952;2023-07-16T05:29:33;98619.36;;;23.49;61.13
57847;BME280;43675;50.030;21.952;2023-07-16T05:31:59;98615.42;;;23.59;61.00
57847;BME280;43675;50.030;21.952;2023-07-16T05:34:26;98620.02;;;23.68;60.90
57847;BME280;43675;50.030;21.952;2023-07-16T05:36:53;98626.30;;;23.78;60.33
57847;BME280;43675;50.030;21.952;2023-07-16T05:39:21;98631.20;;;23.89;60.29
57847;BME280;43675;50.030;21.952;2023-07-16T05:41:48;98626.94;;;24.00;60.18
57847;BME280;43675;50.030;21.952;2023-07-16T05:44:14;98628.19;;;24.14;59.77
57847;BME280;43675;50.030;21.952;2023-07-16T05:46:41;98623.51;;;24.28;59.09
57847;BME280;43675;50.030;21.952;2023-07-16T05:49:07;98627.66;;;24.40;58.59
57847;BME280;43675;50.030;21.952;2023-07-16T05:51:34;98626.36;;;24.50;58.09
57847;BME280;43675;50.030;21.952;2023-07-16T05:54:01;98626.70;;;24.60;57.32
57847;BME280;43675;50.030;21.952;2023-07-16T05:56:28;98630.52;;;24.71;56.61
57847;BME280;43675;50.030;21.952;2023-07-16T05:58:54;98634.36;;;24.82;55.82
57847;BME280;43675;50.030;21.952;2023-07-16T06:01:21;98630.70;;;24.92;55.40
57847;BME280;43675;50.030;21.952;2023-07-16T06:03:47;98628.38;;;25.03;55.03
57847;BME280;43675;50.030;21.952;2023-07-16T06:06:14;98626.87;;;25.12;54.93
57847;BME280;43675;50.030;21.952;2023-07-16T06:08:40;98624.95;;;25.22;54.60
57847;BME280;43675;50.030;21.952;2023-07-16T06:11:07;98621.59;;;25.31;53.87
57847;BME280;43675;50.030;21.952;2023-07-16T06:13:33;98625.77;;;25.40;53.67
57847;BME280;43675;50.030;21.952;2023-07-16T06:16:00;98627.98;;;25.48;53.34
57847;BME280;43675;50.030;21.952;2023-07-16T06:18:26;98631.56;;;25.56;52.84
57847;BME280;43675;50.030;21.952;2023-07-16T06:20:53;98629.42;;;25.64;52.43
57847;BME280;43675;50.030;21.952;2023-07-16T06:23:19;98636.75;;;25.74;52.23
57847;BME280;43675;50.030;21.952;2023-07-16T06:25:46;98637.30;;;25.86;51.63
57847;BME280;43675;50.030;21.952;2023-07-16T06:28:13;98643.14;;;25.94;51.03
57847;BME280;43675;50.030;21.952;2023-07-16T06:30:39;98647.33;;;26.03;50.88
57847;BME280;43675;50.030;21.952;2023-07-16T06:33:06;98647.40;;;26.10;50.34
57847;BME280;43675;50.030;21.952;2023-07-16T06:35:33;98643.42;;;26.17;49.89
57847;BME280;43675;50.030;21.952;2023-07-16T06:37:59;98638.66;;;26.25;50.23
57847;BME280;43675;50.030;21.952;2023-07-16T06:40:26;98641.31;;;26.32;49.67
57847;BME280;43675;50.030;21.952;2023-07-16T06:42:54;98639.34;;;26.40;49.81
57847;BME280;43675;50.030;21.952;2023-07-16T06:45:21;98630.13;;;26.48;49.46
57847;BME280;43675;50.030;21.952;2023-07-16T06:47:48;98634.26;;;26.55;49.44
57847;BME280;43675;50.030;21.952;2023-07-16T06:50:15;98631.54;;;26.62;49.16
57847;BME280;43675;50.030;21.952;2023-07-16T06:52:41;98632.54;;;26.69;48.77
57847;BME280;43675;50.030;21.952;2023-07-16T06:55:08;98632.95;;;26.74;48.40
57847;BME280;43675;50.030;21.952;2023-07-16T06:57:35;98632.98;;;26.78;48.34
57847;BME280;43675;50.030;21.952;2023-07-16T07:00:02;98633.98;;;26.84;48.42
57847;BME280;43675;50.030;21.952;2023-07-16T07:02:29;98631.37;;;26.96;48.17
57847;BME280;43675;50.030;21.952;2023-07-16T07:04:55;98636.20;;;27.14;47.98
57847;BME280;43675;50.030;21.952;2023-07-16T07:07:22;98636.36;;;27.33;47.58
57847;BME280;43675;50.030;21.952;2023-07-16T07:09:48;98629.66;;;27.46;47.14
57847;BME280;43675;50.030;21.952;2023-07-16T07:12:15;98634.45;;;27.44;47.04
57847;BME280;43675;50.030;21.952;2023-07-16T07:14:41;98635.77;;;27.43;47.16
57847;BME280;43675;50.030;21.952;2023-07-16T07:17:08;98637.36;;;27.43;46.94
57847;BME280;43675;50.030;21.952;2023-07-16T07:19:34;98636.23;;;27.46;46.93
57847;BME280;43675;50.030;21.952;2023-07-16T07:22:01;98632.79;;;27.51;47.48
57847;BME280;43675;50.030;21.952;2023-07-16T07:24:27;98633.33;;;27.57;47.11
57847;BME280;43675;50.030;21.952;2023-07-16T07:26:54;98632.61;;;27.64;46.97
57847;BME280;43675;50.030;21.952;2023-07-16T07:29:20;98629.15;;;27.70;46.89
57847;BME280;43675;50.030;21.952;2023-07-16T07:31:47;98625.24;;;27.76;46.96
57847;BME280;43675;50.030;21.952;2023-07-16T07:34:13;98623.22;;;27.84;46.65
57847;BME280;43675;50.030;21.952;2023-07-16T07:36:40;98625.15;;;27.92;46.68
57847;BME280;43675;50.030;21.952;2023-07-16T07:39:07;98625.47;;;28.00;46.56
57847;BME280;43675;50.030;21.952;2023-07-16T07:41:33;98623.02;;;28.07;46.72
57847;BME280;43675;50.030;21.952;2023-07-16T07:44:00;98625.55;;;28.14;46.33
57847;BME280;43675;50.030;21.952;2023-07-16T07:46:26;98627.42;;;28.21;46.08
57847;BME280;43675;50.030;21.952;2023-07-16T07:48:53;98625.19;;;28.28;45.93
57847;BME280;43675;50.030;21.952;2023-07-16T07:51:20;98620.89;;;28.34;45.62
57847;BME280;43675;50.030;21.952;2023-07-16T07:53:46;98623.58;;;28.40;45.68
57847;BME280;43675;50.030;21.952;2023-07-16T07:56:13;98620.33;;;28.48;45.26
57847;BME280;43675;50.030;21.952;2023-07-16T07:58:39;98619.15;;;28.67;45.22
57847;BME280;43675;50.030;21.952;2023-07-16T08:01:07;98617.86;;;28.88;44.81
57847;BME280;43675;50.030;21.952;2023-07-16T08:03:34;98614.01;;;29.05;44.12
57847;BME280;43675;50.030;21.952;2023-07-16T08:06:01;98617.05;;;29.19;43.52
57847;BME280;43675;50.030;21.952;2023-07-16T08:08:27;98614.55;;;29.29;43.04
57847;BME280;43675;50.030;21.952;2023-07-16T08:10:54;98617.30;;;29.39;43.09
57847;BME280;43675;50.030;21.952;2023-07-16T08:13:21;98610.76;;;29.48;43.08
57847;BME280;43675;50.030;21.952;2023-07-16T08:15:47;98614.16;;;29.59;43.15
57847;BME280;43675;50.030;21.952;2023-07-16T08:18:14;98617.02;;;29.71;42.40
57847;BME280;43675;50.030;21.952;2023-07-16T08:20:40;98615.46;;;29.81;42.09
57847;BME280;43675;50.030;21.952;2023-07-16T08:23:07;98620.33;;;29.81;42.06
57847;BME280;43675;50.030;21.952;2023-07-16T08:25:33;98619.08;;;29.78;42.41
57847;BME280;43675;50.030;21.952;2023-07-16T08:28:02;98615.30;;;29.91;42.15
57847;BME280;43675;50.030;21.952;2023-07-16T08:30:28;98611.27;;;30.07;41.90
57847;BME280;43675;50.030;21.952;2023-07-16T08:32:55;98607.35;;;30.13;41.24
57847;BME280;43675;50.030;21.952;2023-07-16T08:35:21;98612.42;;;30.08;41.08
57847;BME280;43675;50.030;21.952;2023-07-16T08:37:48;98612.48;;;30.06;41.03
57847;BME280;43675;50.030;21.952;2023-07-16T08:40:15;98612.94;;;30.02;40.54
57847;BME280;43675;50.030;21.952;2023-07-16T08:42:44;98616.11;;;30.01;39.94
57847;BME280;43675;50.030;21.952;2023-07-16T08:45:11;98613.04;;;30.01;40.15
57847;BME280;43675;50.030;21.952;2023-07-16T08:47:39;98609.69;;;30.14;39.80
57847;BME280;43675;50.030;21.952;2023-07-16T08:50:05;98608.10;;;30.28;39.33
57847;BME280;43675;50.030;21.952;2023-07-16T08:52:32;98614.93;;;30.39;39.68
57847;BME280;43675;50.030;21.952;2023-07-16T08:54:59;98614.21;;;30.40;39.45
57847;BME280;43675;50.030;21.952;2023-07-16T08:57:26;98612.08;;;30.33;39.70
57847;BME280;43675;50.030;21.952;2023-07-16T08:59:53;98613.88;;;30.28;39.33
57847;BME280;43675;50.030;21.952;2023-07-16T09:02:21;98616.63;;;30.26;39.18
57847;BME280;43675;50.030;21.952;2023-07-16T09:04:48;98621.48;;;30.26;39.61
57847;BME280;43675;50.030;21.952;2023-07-16T09:07:15;98620.31;;;30.29;39.83
57847;BME280;43675;50.030;21.952;2023-07-16T09:09:42;98620.30;;;30.33;39.92
57847;BME280;43675;50.030;21.952;2023-07-16T09:12:12;98623.43;;;30.39;39.78
57847;BME280;43675;50.030;21.952;2023-07-16T09:14:41;98622.33;;;30.46;39.75
57847;BME280;43675;50.030;21.952;2023-07-16T09:17:07;98625.13;;;30.54;40.08
57847;BME280;43675;50.030;21.952;2023-07-16T09:19:34;98629.30;;;30.61;39.27
57847;BME280;43675;50.030;21.952;2023-07-16T09:22:00;98628.55;;;30.67;39.24
57847;BME280;43675;50.030;21.952;2023-07-16T09:24:28;98630.66;;;30.72;39.11
57847;BME280;43675;50.030;21.952;2023-07-16T09:26:55;98629.30;;;30.78;39.08
57847;BME280;43675;50.030;21.952;2023-07-16T09:29:22;98632.71;;;30.86;39.39
57847;BME280;43675;50.030;21.952;2023-07-16T09:32:00;98642.77;;;30.94;39.22
57847;BME280;43675;50.030;21.952;2023-07-16T09:34:27;98643.88;;;31.04;38.85
57847;BME280;43675;50.030;21.952;2023-07-16T09:36:54;98640.96;;;31.25;38.73
57847;BME280;43675;50.030;21.952;2023-07-16T09:39:22;98637.30;;;31.44;37.90
57847;BME280;43675;50.030;21.952;2023-07-16T09:41:49;98635.80;;;31.59;37.87
57847;BME280;43675;50.030;21.952;2023-07-16T09:44:16;98630.09;;;31.62;38.12
57847;BME280;43675;50.030;21.952;2023-07-16T09:46:43;98625.48;;;31.59;38.12
57847;BME280;43675;50.030;21.952;2023-07-16T09:49:10;98624.16;;;31.57;38.10
57847;BME280;43675;50.030;21.952;2023-07-16T09:51:38;98624.08;;;31.57;37.59
57847;BME280;43675;50.030;21.952;2023-07-16T09:54:05;98622.02;;;31.59;37.48
57847;BME280;43675;50.030;21.952;2023-07-16T09:56:45;98624.43;;;31.75;37.55
57847;BME280;43675;50.030;21.952;2023-07-16T09:59:14;98620.98;;;31.91;37.07
57847;BME280;43675;50.030;21.952;2023-07-16T10:01:42;98622.57;;;32.03;37.09
57847;BME280;43675;50.030;21.952;2023-07-16T10:04:19;98627.63;;;32.13;36.73
57847;BME280;43675;50.030;21.952;2023-07-16T10:06:58;98624.25;;;32.12;35.97
57847;BME280;43675;50.030;21.952;2023-07-16T10:14:48;98616.64;;;32.06;36.45
57847;BME280;43675;50.030;21.952;2023-07-16T10:17:17;98619.92;;;32.13;35.97
57847;BME280;43675;50.030;21.952;2023-07-16T10:20:00;98613.61;;;32.06;35.88
57847;BME280;43675;50.030;21.952;2023-07-16T10:25:23;98612.59;;;31.95;36.66
57847;BME280;43675;50.030;21.952;2023-07-16T10:27:52;98612.33;;;32.00;37.28
57847;BME280;43675;50.030;21.952;2023-07-16T10:30:19;98609.61;;;32.07;37.11
57847;BME280;43675;50.030;21.952;2023-07-16T10:32:45;98608.73;;;32.13;37.00
57847;BME280;43675;50.030;21.952;2023-07-16T10:35:12;98607.75;;;32.18;37.09
57847;BME280;43675;50.030;21.952;2023-07-16T10:37:39;98605.25;;;32.25;36.82
57847;BME280;43675;50.030;21.952;2023-07-16T10:40:11;98600.99;;;32.33;36.46
57847;BME280;43675;50.030;21.952;2023-07-16T10:42:41;98608.70;;;32.46;36.06
57847;BME280;43675;50.030;21.952;2023-07-16T10:45:08;98608.52;;;32.52;35.59
57847;BME280;43675;50.030;21.952;2023-07-16T10:47:36;98607.60;;;32.44;35.56
57847;BME280;43675;50.030;21.952;2023-07-16T10:50:05;98605.77;;;32.34;35.52
57847;BME280;43675;50.030;21.952;2023-07-16T10:52:32;98602.83;;;32.30;35.54
57847;BME280;43675;50.030;21.952;2023-07-16T10:54:58;98601.40;;;32.40;35.58
57847;BME280;43675;50.030;21.952;2023-07-16T10:57:26;98601.22;;;32.56;35.65
57847;BME280;43675;50.030;21.952;2023-07-16T10:59:58;98599.80;;;32.68;35.53
57847;BME280;43675;50.030;21.952;2023-07-16T11:02:26;98598.70;;;32.65;35.37
57847;BME280;43675;50.030;21.952;2023-07-16T11:04:53;98597.34;;;32.72;35.47
57847;BME280;43675;50.030;21.952;2023-07-16T11:07:20;98601.32;;;32.83;34.85
57847;BME280;43675;50.030;21.952;2023-07-16T11:09:52;98597.34;;;32.86;34.67
57847;BME280;43675;50.030;21.952;2023-07-16T11:12:20;98597.04;;;32.94;35.28
57847;BME280;43675;50.030;21.952;2023-07-16T11:14:52;98602.00;;;33.09;35.50
57847;BME280;43675;50.030;21.952;2023-07-16T11:17:20;98597.52;;;33.22;35.00
57847;BME280;43675;50.030;21.952;2023-07-16T11:19:48;98594.69;;;33.23;34.95
57847;BME280;43675;50.030;21.952;2023-07-16T11:22:17;98599.88;;;33.28;35.14
57847;BME280;43675;50.030;21.952;2023-07-16T11:27:13;98593.43;;;33.60;34.08
57847;BME280;43675;50.030;21.952;2023-07-16T11:29:45;98605.23;;;33.57;34.18
57847;BME280;43675;50.030;21.952;2023-07-16T11:32:13;98601.07;;;33.48;33.43
57847;BME280;43675;50.030;21.952;2023-07-16T11:34:54;98607.23;;;33.42;33.34
57847;BME280;43675;50.030;21.952;2023-07-16T11:37:21;98600.36;;;33.29;33.06
57847;BME280;43675;50.030;21.952;2023-07-16T11:39:48;98600.98;;;33.14;33.38
57847;BME280;43675;50.030;21.952;2023-07-16T11:42:20;98599.77;;;32.99;33.53
57847;BME280;43675;50.030;21.952;2023-07-16T11:44:49;98602.10;;;32.93;33.88
57847;BME280;43675;50.030;21.952;2023-07-16T11:47:16;98604.80;;;32.96;34.14
57847;BME280;43675;50.030;21.952;2023-07-16T11:49:42;98605.21;;;33.14;33.92
57847;BME280;43675;50.030;21.952;2023-07-16T11:52:09;98600.95;;;33.35;33.85
57847;BME280;43675;50.030;21.952;2023-07-16T11:54:35;98606.20;;;33.54;33.52
57847;BME280;43675;50.030;21.952;2023-07-16T11:57:02;98599.95;;;33.63;33.43
57847;BME280;43675;50.030;21.952;2023-07-16T11:59:29;98598.66;;;33.74;33.16
57847;BME280;43675;50.030;21.952;2023-07-16T12:01:55;98601.86;;;33.88;33.22
57847;BME280;43675;50.030;21.952;2023-07-16T12:04:21;98603.48;;;33.90;32.47
57847;BME280;43675;50.030;21.952;2023-07-16T12:06:48;98600.14;;;33.81;32.03
57847;BME280;43675;50.030;21.952;2023-07-16T12:09:14;98600.09;;;33.70;32.05
57847;BME280;43675;50.030;21.952;2023-07-16T12:11:41;98602.51;;;33.60;32.09
57847;BME280;43675;50.030;21.952;2023-07-16T12:14:07;98606.03;;;33.50;31.41
57847;BME280;43675;50.030;21.952;2023-07-16T12:16:34;98604.11;;;33.38;31.29
57847;BME280;43675;50.030;21.952;2023-07-16T12:19:00;98598.42;;;33.27;31.44
57847;BME280;43675;50.030;21.952;2023-07-16T12:21:27;98604.71;;;33.24;32.00
57847;BME280;43675;50.030;21.952;2023-07-16T12:23:53;98604.00;;;33.24;31.82
57847;BME280;43675;50.030;21.952;2023-07-16T12:26:20;98601.26;;;33.22;31.95
57847;BME280;43675;50.030;21.952;2023-07-16T12:28:46;98602.36;;;33.22;31.98
57847;BME280;43675;50.030;21.952;2023-07-16T12:31:14;98606.05;;;33.23;32.19
57847;BME280;43675;50.030;21.952;2023-07-16T12:33:40;98603.52;;;33.24;32.25
57847;BME280;43675;50.030;21.952;2023-07-16T12:36:07;98602.27;;;33.25;32.11
57847;BME280;43675;50.030;21.952;2023-07-16T12:38:33;98601.74;;;33.27;32.05
57847;BME280;43675;50.030;21.952;2023-07-16T12:41:00;98600.87;;;33.26;32.09
57847;BME280;43675;50.030;21.952;2023-07-16T12:43:26;98600.77;;;33.30;32.00
57847;BME280;43675;50.030;21.952;2023-07-16T12:45:53;98596.31;;;33.33;31.90
57847;BME280;43675;50.030;21.952;2023-07-16T12:48:20;98596.73;;;33.41;31.80
57847;BME280;43675;50.030;21.952;2023-07-16T12:50:46;98603.20;;;33.47;31.80
57847;BME280;43675;50.030;21.952;2023-07-16T12:53:13;98597.59;;;33.41;31.58
57847;BME280;43675;50.030;21.952;2023-07-16T12:55:39;98595.48;;;33.35;31.54
57847;BME280;43675;50.030;21.952;2023-07-16T12:58:06;98596.13;;;33.36;31.96
57847;BME280;43675;50.030;21.952;2023-07-16T13:00:32;98599.45;;;33.39;31.97
57847;BME280;43675;50.030;21.952;2023-07-16T13:02:59;98599.33;;;33.37;31.73
57847;BME280;43675;50.030;21.952;2023-07-16T13:05:25;98597.70;;;33.30;31.31
57847;BME280;43675;50.030;21.952;2023-07-16T13:07:52;98603.47;;;33.26;31.69